Lake Nichols, Minnesota
Current Conditions -  °F | °C
As of 5:55 AM on Thursday 18 Dec 2014 (Local Time) from KDLH Reporting Station
Light Snow Light Snow  
Wind Chill: 19°   Ceiling: 1200
Heat Index: 19°   Visibility: 9mi
Dew Point: 14°   Wind: 0mph
Humidity: 81%   Direction: NA
Pressure: 30.26"   Gusts: NA
Location:  47.068°N, 92.4547°W
Report Text: KDLH 181155Z 00000KT 9SM -SN OVC012 M07/M10 A3026 RMK AO2 SLP277 P0000 60000 T10721100 11072 21083 58007
Loading
Personal Weather Stations






























Interactive Weather Map New forecast layout! Learn more

10-Day Weather Forecast

Advertisements
Track Severe Weather on mobile